createdAt,value
2023-05-17T00:00:54.823Z,17.00
2023-05-17T00:03:23.130Z,14.67
2023-05-17T00:05:51.473Z,15.00
2023-05-17T00:08:19.689Z,15.33
2023-05-17T00:10:48.695Z,15.00
2023-05-17T00:13:16.939Z,18.00
2023-05-17T00:15:45.166Z,15.50
2023-05-17T00:18:13.461Z,15.00
2023-05-17T00:20:41.802Z,15.50
2023-05-17T00:23:10.002Z,16.33
2023-05-17T00:25:39.082Z,17.00
2023-05-17T00:28:07.271Z,17.00
2023-05-17T00:30:36.264Z,17.67
2023-05-17T00:33:04.590Z,14.00
2023-05-17T00:35:33.645Z,18.33
2023-05-17T00:38:01.859Z,18.00
2023-05-17T00:40:30.875Z,15.67
2023-05-17T00:42:59.041Z,16.00
2023-05-17T00:45:28.239Z,17.67
2023-05-17T00:47:56.739Z,17.67
2023-05-17T00:50:26.219Z,16.67
2023-05-17T00:52:55.676Z,15.33
2023-05-17T00:55:23.893Z,15.00
2023-05-17T00:57:52.094Z,19.00
2023-05-17T01:00:20.481Z,16.50
2023-05-17T01:02:50.251Z,21.00
2023-05-17T01:05:18.706Z,16.67
2023-05-17T01:07:46.957Z,16.33
2023-05-17T01:10:15.176Z,16.67
2023-05-17T01:13:11.219Z,16.67
2023-05-17T01:15:47.722Z,16.00
2023-05-17T01:18:46.949Z,18.33
2023-05-17T01:21:41.749Z,16.33
2023-05-17T01:24:28.160Z,15.33
2023-05-17T01:26:59.667Z,18.00
2023-05-17T01:29:30.090Z,17.67
2023-05-17T01:32:00.274Z,16.67
2023-05-17T01:34:30.179Z,17.00
2023-05-17T01:36:58.508Z,15.33
2023-05-17T01:39:27.614Z,17.33
2023-05-17T01:42:36.515Z,16.00
2023-05-17T01:45:20.919Z,15.67
2023-05-17T01:48:07.470Z,15.00
2023-05-17T01:50:37.925Z,16.50
2023-05-17T01:53:12.139Z,16.00
2023-05-17T01:55:51.706Z,15.67
2023-05-17T01:58:23.061Z,14.00
2023-05-17T02:00:56.844Z,17.67
2023-05-17T02:03:25.508Z,17.33
2023-05-17T02:05:54.565Z,16.67
2023-05-17T02:08:22.763Z,16.00
2023-05-17T02:10:51.923Z,18.33
2023-05-17T02:13:20.143Z,15.67
2023-05-17T02:15:49.165Z,16.00
2023-05-17T02:18:17.837Z,17.00
2023-05-17T02:20:46.186Z,15.00
2023-05-17T02:23:15.180Z,17.00
2023-05-17T02:25:43.326Z,14.00
2023-05-17T02:28:11.580Z,15.67
2023-05-17T02:30:42.636Z,17.33
2023-05-17T02:33:11.890Z,16.00
2023-05-17T02:35:40.183Z,15.67
2023-05-17T02:38:08.392Z,17.00
2023-05-17T02:40:37.389Z,18.00
2023-05-17T02:43:06.490Z,18.00
2023-05-17T02:45:34.637Z,13.33
2023-05-17T02:48:03.733Z,17.00
2023-05-17T02:50:31.916Z,16.00
2023-05-17T02:53:01.336Z,18.67
2023-05-17T02:55:29.905Z,19.00
2023-05-17T02:57:58.389Z,17.67
2023-05-17T03:00:27.383Z,15.00
2023-05-17T03:02:55.902Z,18.33
2023-05-17T03:05:24.189Z,15.67
2023-05-17T03:07:52.477Z,16.50
2023-05-17T03:10:21.537Z,17.67
2023-05-17T03:12:49.788Z,17.00
2023-05-17T03:15:18.932Z,18.00
2023-05-17T03:17:48.007Z,17.33
2023-05-17T03:20:16.459Z,17.67
2023-05-17T03:22:45.564Z,18.67
2023-05-17T03:25:13.764Z,17.00
2023-05-17T03:27:41.989Z,17.33
2023-05-17T03:30:10.655Z,17.00
2023-05-17T03:32:40.819Z,16.50
2023-05-17T03:35:09.896Z,15.50
2023-05-17T03:37:38.878Z,14.67
2023-05-17T03:40:08.701Z,18.00
2023-05-17T03:42:37.305Z,18.00
2023-05-17T03:45:07.267Z,14.67
2023-05-17T03:47:35.575Z,15.67
2023-05-17T03:50:03.995Z,15.33
2023-05-17T03:52:33.013Z,16.67
2023-05-17T03:55:01.192Z,14.00
2023-05-17T03:57:29.321Z,17.00
2023-05-17T03:59:57.512Z,15.50
2023-05-17T04:02:25.918Z,16.00
2023-05-17T04:04:54.970Z,18.00
2023-05-17T04:07:23.246Z,17.33
2023-05-17T04:09:52.351Z,15.00
2023-05-17T04:12:20.536Z,15.33
2023-05-17T04:14:48.760Z,15.50
2023-05-17T04:17:17.039Z,15.33
2023-05-17T04:19:45.464Z,15.00
2023-05-17T04:22:14.003Z,16.67
2023-05-17T04:24:42.223Z,15.67
2023-05-17T04:27:11.521Z,15.33
2023-05-17T04:29:41.120Z,16.33
2023-05-17T04:32:10.079Z,15.67
2023-05-17T04:34:38.285Z,16.00
2023-05-17T04:37:07.796Z,16.00
2023-05-17T04:39:36.184Z,17.00
2023-05-17T04:42:04.643Z,18.33
2023-05-17T04:44:33.699Z,18.33
2023-05-17T04:47:02.485Z,18.67
2023-05-17T04:49:31.766Z,15.33
2023-05-17T04:51:59.996Z,16.33
2023-05-17T04:54:28.986Z,15.33
2023-05-17T04:56:57.211Z,16.33
2023-05-17T04:59:25.394Z,18.00
2023-05-17T05:01:54.390Z,18.00
2023-05-17T05:04:23.753Z,17.00
2023-05-17T05:06:52.639Z,17.33
2023-05-17T05:09:20.984Z,18.33
2023-05-17T05:11:49.976Z,18.33
2023-05-17T05:14:18.950Z,19.50
2023-05-17T05:16:47.131Z,18.00
2023-05-17T05:19:17.028Z,16.00
2023-05-17T05:21:46.670Z,18.67
2023-05-17T05:24:14.910Z,20.00
2023-05-17T05:26:44.999Z,18.25
2023-05-17T05:29:13.999Z,19.25
2023-05-17T05:31:42.231Z,18.00
2023-05-17T05:34:11.406Z,17.33
2023-05-17T05:36:39.787Z,19.33
2023-05-17T05:39:09.183Z,18.00
2023-05-17T05:41:37.441Z,18.67
2023-05-17T05:44:05.779Z,17.00
2023-05-17T05:46:34.812Z,19.00
2023-05-17T05:49:03.135Z,17.67
2023-05-17T05:51:32.689Z,18.00
2023-05-17T05:54:00.932Z,19.00
2023-05-17T05:56:29.329Z,18.00
2023-05-17T05:58:58.618Z,19.67
2023-05-17T06:01:27.905Z,17.00
2023-05-17T06:03:56.248Z,17.67
2023-05-17T06:06:24.577Z,17.00
2023-05-17T06:08:52.867Z,18.00
2023-05-17T06:11:21.413Z,17.00
2023-05-17T06:13:49.681Z,19.00
2023-05-17T06:16:18.066Z,21.00
2023-05-17T06:18:48.763Z,19.00
2023-05-17T06:21:19.149Z,18.67
2023-05-17T06:23:47.531Z,20.00
2023-05-17T06:26:15.733Z,16.67
2023-05-17T06:28:43.908Z,18.00
2023-05-17T06:31:12.154Z,22.00
2023-05-17T06:33:40.392Z,19.00
2023-05-17T06:36:08.889Z,30.00
2023-05-17T06:38:37.237Z,22.33
2023-05-17T06:41:05.761Z,22.00
2023-05-17T06:43:35.621Z,21.00
2023-05-17T06:46:06.199Z,21.67
2023-05-17T06:48:34.474Z,22.00
2023-05-17T06:51:03.009Z,21.00
2023-05-17T06:53:31.280Z,20.67
2023-05-17T06:55:59.467Z,21.33
2023-05-17T06:58:27.649Z,20.33
2023-05-17T07:00:55.875Z,21.00
2023-05-17T07:03:24.275Z,22.00
2023-05-17T07:05:52.548Z,22.00
2023-05-17T07:08:21.202Z,20.33
2023-05-17T07:10:52.743Z,21.67
2023-05-17T07:13:21.027Z,20.67
2023-05-17T07:15:50.103Z,21.33
2023-05-17T07:18:18.443Z,22.33
2023-05-17T07:20:47.951Z,22.00
2023-05-17T07:23:16.412Z,22.67
2023-05-17T07:25:44.645Z,21.33
2023-05-17T07:28:12.903Z,22.67
2023-05-17T07:30:41.273Z,23.00
2023-05-17T07:33:09.565Z,23.00
2023-05-17T07:35:41.297Z,22.00
2023-05-17T07:38:11.030Z,22.33
2023-05-17T07:40:39.222Z,24.33
2023-05-17T07:43:07.461Z,23.67
2023-05-17T07:45:36.534Z,23.00
2023-05-17T07:48:04.946Z,23.00
2023-05-17T07:50:33.987Z,23.00
2023-05-17T07:53:02.187Z,24.33
2023-05-17T07:55:31.373Z,24.00
2023-05-17T07:57:59.684Z,23.00
2023-05-17T08:00:28.503Z,22.00
2023-05-17T08:02:57.772Z,24.33
2023-05-17T08:05:26.192Z,24.00
2023-05-17T08:07:54.419Z,23.00
2023-05-17T08:10:23.486Z,24.67
2023-05-17T08:12:51.652Z,22.67
2023-05-17T08:15:20.869Z,25.33
2023-05-17T08:17:49.168Z,24.00
2023-05-17T08:20:17.769Z,21.00
2023-05-17T08:22:49.643Z,24.00
2023-05-17T08:25:17.803Z,23.00
2023-05-17T08:27:45.990Z,23.67
2023-05-17T08:30:18.162Z,25.00
2023-05-17T08:32:57.105Z,23.00
2023-05-17T08:35:28.601Z,24.00
2023-05-17T08:37:57.792Z,24.67
2023-05-17T08:40:26.105Z,24.33
2023-05-17T08:42:54.833Z,23.00
2023-05-17T08:45:23.271Z,23.67
2023-05-17T08:47:54.973Z,25.00
2023-05-17T08:50:24.064Z,22.67
2023-05-17T08:52:52.624Z,24.00
2023-05-17T08:55:21.738Z,23.67
2023-05-17T08:57:50.817Z,23.67
2023-05-17T09:00:22.516Z,22.00
2023-05-17T09:02:51.836Z,22.67
2023-05-17T09:05:20.660Z,23.33
2023-05-17T09:07:49.736Z,24.00
2023-05-17T09:10:18.175Z,22.00
2023-05-17T09:12:47.229Z,23.00
2023-05-17T09:15:18.504Z,23.00
2023-05-17T09:17:57.432Z,26.00
2023-05-17T09:20:35.488Z,22.00
2023-05-17T09:23:07.641Z,22.67
2023-05-17T09:25:36.740Z,24.00
2023-05-17T09:28:11.623Z,22.00
2023-05-17T09:30:42.209Z,23.00
2023-05-17T09:33:13.208Z,22.33
2023-05-17T09:35:44.216Z,25.33
2023-05-17T09:38:14.118Z,24.00
2023-05-17T09:40:45.146Z,23.33
2023-05-17T09:43:14.489Z,23.00
2023-05-17T09:45:42.750Z,24.00
2023-05-17T09:48:19.819Z,24.00
2023-05-17T09:50:52.751Z,26.00
2023-05-17T09:53:29.445Z,23.33
2023-05-17T09:56:00.844Z,25.67
2023-05-17T09:58:29.369Z,24.00
2023-05-17T10:01:08.839Z,24.00
2023-05-17T10:03:38.850Z,23.67
2023-05-17T10:06:09.864Z,23.00
2023-05-17T10:08:47.897Z,26.00
2023-05-17T10:11:17.070Z,25.33
2023-05-17T10:13:52.564Z,23.67
2023-05-17T10:16:25.591Z,24.00
2023-05-17T10:18:54.486Z,27.00
2023-05-17T10:21:23.137Z,25.00
2023-05-17T10:23:52.027Z,26.33
2023-05-17T10:26:21.101Z,23.00
2023-05-17T10:28:53.700Z,24.00
2023-05-17T10:31:23.201Z,24.00
2023-05-17T10:33:52.235Z,24.00
2023-05-17T10:36:22.027Z,24.33
2023-05-17T10:38:52.110Z,26.00
2023-05-17T10:41:24.510Z,24.67
2023-05-17T10:43:55.216Z,24.00
2023-05-17T10:46:24.334Z,24.67
2023-05-17T10:48:55.331Z,24.00
2023-05-17T10:51:26.101Z,23.67
2023-05-17T10:54:03.181Z,26.00
2023-05-17T10:56:32.932Z,24.00
2023-05-17T10:59:22.977Z,24.00
2023-05-17T11:01:57.886Z,24.00
2023-05-17T11:04:38.615Z,22.00
2023-05-17T11:07:19.342Z,24.67
2023-05-17T11:09:55.993Z,22.67
2023-05-17T11:12:40.602Z,23.00
2023-05-17T11:15:11.876Z,25.33
2023-05-17T11:20:29.354Z,25.00
2023-05-17T11:23:07.119Z,24.00
2023-05-17T11:25:38.196Z,24.67
2023-05-17T11:28:22.396Z,24.67
2023-05-17T11:30:53.946Z,24.67
2023-05-17T11:33:46.602Z,25.00
2023-05-17T11:36:24.371Z,26.00
2023-05-17T11:39:14.206Z,26.00
2023-05-17T11:41:54.757Z,25.00
2023-05-17T11:44:31.793Z,24.00
2023-05-17T11:47:06.226Z,23.00
2023-05-17T11:49:38.501Z,23.00
2023-05-17T11:52:08.058Z,23.67
2023-05-17T11:54:40.694Z,24.67
2023-05-17T11:57:11.039Z,26.00
2023-05-17T11:59:40.333Z,24.00
2023-05-17T12:02:08.631Z,23.00
2023-05-17T12:04:39.334Z,23.00
2023-05-17T12:07:11.172Z,23.33
2023-05-17T12:09:40.910Z,25.67
2023-05-17T12:12:09.087Z,23.00
2023-05-17T12:14:37.866Z,24.00
2023-05-17T12:17:09.932Z,26.00
2023-05-17T12:19:38.304Z,22.67
2023-05-17T12:22:13.113Z,24.00
2023-05-17T12:24:43.317Z,22.00
2023-05-17T12:27:12.005Z,25.67
2023-05-17T12:29:41.272Z,22.33
2023-05-17T12:32:11.298Z,23.33
2023-05-17T12:34:39.654Z,21.67
2023-05-17T12:37:11.006Z,23.67
2023-05-17T12:39:40.334Z,24.67
2023-05-17T12:42:09.728Z,23.00
2023-05-17T12:44:37.955Z,23.00
2023-05-17T12:47:06.356Z,23.00
2023-05-17T12:49:40.272Z,24.00
2023-05-17T12:52:08.521Z,25.00
2023-05-17T12:54:37.065Z,24.00
2023-05-17T12:57:14.396Z,25.00
2023-05-17T12:59:52.181Z,26.00
2023-05-17T13:02:21.270Z,26.00
2023-05-17T13:04:50.032Z,26.67
2023-05-17T13:07:24.292Z,26.33
2023-05-17T13:09:52.700Z,26.00
2023-05-17T13:12:25.074Z,27.00
2023-05-17T13:14:55.029Z,22.67
2023-05-17T13:17:36.809Z,20.67
2023-05-17T13:20:10.437Z,20.33
2023-05-17T13:22:49.928Z,28.25
2023-05-17T13:25:19.739Z,22.00
2023-05-17T13:27:49.607Z,22.00
2023-05-17T13:30:18.174Z,22.33
2023-05-17T13:32:47.678Z,24.00
2023-05-17T13:35:15.994Z,24.00
2023-05-17T13:37:44.269Z,22.00
2023-05-17T13:40:13.188Z,18.00
2023-05-17T13:42:41.408Z,14.00
2023-05-17T13:45:09.528Z,12.00
2023-05-17T13:47:36.846Z,8.50
2023-05-17T13:50:06.486Z,13.33
2023-05-17T13:52:34.768Z,12.00
2023-05-17T13:55:03.038Z,11.00
2023-05-17T13:57:31.570Z,11.00
2023-05-17T13:59:59.741Z,9.33
2023-05-17T14:02:27.888Z,13.00
2023-05-17T14:04:55.685Z,9.00
2023-05-17T14:07:23.833Z,11.00
2023-05-17T14:09:52.078Z,12.67
2023-05-17T14:12:20.465Z,13.50
2023-05-17T14:14:48.656Z,12.00
2023-05-17T14:17:16.827Z,11.00
2023-05-17T14:19:48.508Z,13.00
2023-05-17T14:22:17.597Z,12.33
2023-05-17T14:24:45.891Z,19.00
2023-05-17T14:27:14.024Z,15.00
2023-05-17T14:29:42.236Z,15.00
2023-05-17T14:32:13.102Z,22.00
2023-05-17T14:34:41.329Z,14.67
2023-05-17T14:37:10.574Z,19.33
2023-05-17T14:39:38.790Z,21.67
2023-05-17T14:42:07.050Z,20.33
2023-05-17T14:44:38.929Z,19.00
2023-05-17T14:47:11.205Z,21.00
2023-05-17T14:49:39.375Z,20.00
2023-05-17T14:52:07.759Z,18.33
2023-05-17T14:54:36.782Z,61.50
2023-05-17T14:57:06.550Z,23.00
2023-05-17T14:59:36.880Z,83.25
2023-05-17T15:02:05.825Z,29.67
2023-05-17T15:04:34.118Z,20.00
2023-05-17T15:07:02.465Z,29.33
2023-05-17T15:09:31.303Z,34.00
2023-05-17T15:12:00.608Z,126.50
2023-05-17T15:14:31.887Z,116.63
2023-05-17T15:17:02.489Z,22.33
2023-05-17T15:19:31.908Z,24.00
2023-05-17T15:22:00.272Z,31.00
2023-05-17T15:24:29.080Z,19.00
2023-05-17T15:26:57.325Z,18.00
2023-05-17T15:29:25.787Z,16.00
2023-05-17T15:31:54.020Z,16.67
2023-05-17T15:34:22.325Z,18.33
2023-05-17T15:36:50.556Z,16.00
2023-05-17T15:39:18.762Z,15.67
2023-05-17T15:41:46.887Z,15.67
2023-05-17T15:44:15.058Z,14.67
2023-05-17T15:46:43.219Z,14.00
2023-05-17T15:49:11.767Z,16.67
2023-05-17T15:51:39.984Z,17.67
2023-05-17T15:54:09.289Z,16.67
2023-05-17T15:56:38.921Z,14.33
2023-05-17T15:59:07.981Z,15.00
2023-05-17T16:01:36.324Z,15.00
2023-05-17T16:04:04.713Z,18.00
2023-05-17T16:06:36.237Z,17.33
2023-05-17T16:09:04.585Z,24.00
2023-05-17T16:11:32.797Z,22.00
2023-05-17T16:14:01.070Z,17.00
2023-05-17T16:16:29.363Z,16.33
2023-05-17T16:18:58.011Z,14.00
2023-05-17T16:21:25.562Z,11.00
2023-05-17T16:23:53.787Z,14.00
2023-05-17T16:26:21.932Z,14.00
2023-05-17T16:28:50.966Z,14.50
2023-05-17T16:31:19.225Z,13.00
2023-05-17T16:33:47.543Z,13.00
2023-05-17T16:36:15.742Z,10.50
2023-05-17T16:38:44.089Z,12.00
2023-05-17T16:41:11.357Z,13.00
2023-05-17T16:43:39.394Z,12.00
2023-05-17T16:46:06.811Z,11.00
2023-05-17T16:48:34.985Z,11.67
2023-05-17T16:51:03.132Z,10.00
2023-05-17T16:53:31.362Z,12.00
2023-05-17T16:55:59.469Z,8.67
2023-05-17T16:58:26.979Z,12.50
2023-05-17T17:00:55.164Z,11.67
2023-05-17T17:03:23.409Z,10.33
2023-05-17T17:05:51.669Z,12.00
2023-05-17T17:08:19.902Z,14.00
2023-05-17T17:10:48.120Z,13.00
2023-05-17T17:13:16.866Z,11.00
2023-05-17T17:15:45.137Z,10.00
2023-05-17T17:18:13.314Z,9.00
2023-05-17T17:20:41.673Z,9.00
2023-05-17T17:23:09.891Z,8.00
2023-05-17T17:25:38.006Z,10.00
2023-05-17T17:28:06.130Z,8.67
2023-05-17T17:30:33.441Z,8.50
2023-05-17T17:33:01.342Z,7.50
2023-05-17T17:35:29.556Z,8.00
2023-05-17T17:37:57.582Z,8.33
2023-05-17T17:40:24.842Z,7.50
2023-05-17T17:42:52.924Z,9.33
2023-05-17T17:45:20.265Z,8.50
2023-05-17T17:47:48.342Z,8.00
2023-05-17T17:50:15.688Z,6.00
2023-05-17T17:52:43.842Z,7.67
2023-05-17T17:55:13.806Z,6.40
2023-05-17T17:57:42.933Z,7.00
2023-05-17T18:00:13.800Z,6.80
2023-05-17T18:02:42.368Z,6.00
2023-05-17T18:05:12.069Z,7.00
2023-05-17T18:07:41.295Z,7.00
2023-05-17T18:10:09.766Z,7.00
2023-05-17T18:12:39.007Z,7.00
2023-05-17T18:15:06.967Z,7.50
2023-05-17T18:17:35.109Z,10.00
2023-05-17T18:20:03.536Z,9.33
2023-05-17T18:22:31.710Z,7.00
2023-05-17T18:25:01.380Z,7.80
2023-05-17T18:27:32.075Z,6.14
2023-05-17T18:30:01.472Z,5.60
2023-05-17T18:32:28.837Z,6.00
2023-05-17T18:34:59.834Z,6.00
2023-05-17T18:37:28.261Z,6.00
2023-05-17T18:39:55.697Z,6.50
2023-05-17T18:42:25.144Z,6.00
2023-05-17T18:44:52.422Z,6.00
2023-05-17T18:47:23.694Z,6.00
2023-05-17T18:49:52.859Z,5.80
2023-05-17T18:52:21.885Z,5.80
2023-05-17T18:54:50.935Z,7.00
2023-05-17T18:57:19.986Z,7.00
2023-05-17T18:59:50.716Z,6.00
2023-05-17T19:02:18.792Z,8.00
2023-05-17T19:04:46.047Z,5.00
2023-05-17T19:07:15.119Z,5.60
2023-05-17T19:09:44.185Z,5.60
2023-05-17T19:12:13.208Z,4.80
2023-05-17T19:14:40.635Z,5.00
2023-05-17T19:17:10.402Z,4.60
2023-05-17T19:19:39.589Z,5.00
2023-05-17T19:22:07.735Z,9.00
2023-05-17T19:24:35.951Z,8.33
2023-05-17T19:27:05.503Z,7.00
2023-05-17T19:29:34.522Z,6.20
2023-05-17T19:32:06.322Z,5.86
2023-05-17T19:34:33.554Z,7.00
2023-05-17T19:37:02.651Z,8.00
2023-05-17T19:39:31.734Z,5.60
2023-05-17T19:41:59.974Z,23.67
2023-05-17T19:44:27.484Z,41.50
2023-05-17T19:46:55.952Z,13.00
2023-05-17T19:49:24.331Z,26.50
2023-05-17T19:51:54.252Z,6.00
2023-05-17T19:54:22.220Z,5.00
2023-05-17T19:56:51.361Z,5.20
2023-05-17T19:59:19.507Z,10.33
2023-05-17T20:01:48.523Z,17.00
2023-05-17T20:04:16.922Z,19.67
2023-05-17T20:06:45.417Z,16.00
2023-05-17T20:09:13.582Z,14.67
2023-05-17T20:11:41.852Z,23.33
2023-05-17T20:14:12.529Z,7.80
2023-05-17T20:16:41.637Z,7.60
2023-05-17T20:19:09.885Z,9.67
2023-05-17T20:21:37.283Z,9.00
2023-05-17T20:24:07.236Z,7.00
2023-05-17T20:26:37.380Z,6.40
2023-05-17T20:29:08.469Z,8.00
2023-05-17T20:31:37.403Z,8.00
2023-05-17T20:34:06.707Z,7.40
2023-05-17T20:36:33.981Z,6.00
2023-05-17T20:39:02.422Z,22.67
2023-05-17T20:41:30.646Z,22.00
2023-05-17T20:43:58.908Z,22.67
2023-05-17T20:46:30.101Z,12.33
2023-05-17T20:48:58.395Z,11.00
2023-05-17T20:51:27.604Z,10.00
2023-05-17T20:53:55.667Z,7.33
2023-05-17T20:56:23.814Z,10.00
2023-05-17T20:58:52.024Z,11.67
2023-05-17T21:01:19.453Z,12.00
2023-05-17T21:03:50.118Z,17.00
2023-05-17T21:06:17.506Z,7.00
2023-05-17T21:08:46.965Z,7.80
2023-05-17T21:11:21.288Z,8.00
2023-05-17T21:13:50.860Z,7.33
2023-05-17T21:16:19.628Z,11.67
2023-05-17T21:18:47.734Z,8.00
2023-05-17T21:21:15.891Z,8.00
2023-05-17T21:23:44.050Z,9.33
2023-05-17T21:26:11.376Z,10.50
2023-05-17T21:28:39.690Z,9.33
2023-05-17T21:31:08.880Z,8.00
2023-05-17T21:33:38.052Z,6.00
2023-05-17T21:36:06.409Z,9.00
2023-05-17T21:38:34.626Z,9.00
2023-05-17T21:41:02.698Z,6.67
2023-05-17T21:43:31.808Z,6.80
2023-05-17T21:46:00.868Z,6.00
2023-05-17T21:48:28.198Z,5.00
2023-05-17T21:50:55.466Z,5.00
2023-05-17T21:53:24.525Z,5.00
2023-05-17T21:56:02.080Z,4.86
2023-05-17T21:58:33.635Z,5.14
2023-05-17T22:01:01.302Z,6.00
2023-05-17T22:03:28.717Z,5.00
2023-05-17T22:05:56.059Z,2.00
2023-05-17T22:08:23.258Z,2.00
2023-05-17T22:10:50.509Z,2.00
2023-05-17T22:13:18.483Z,2.00
2023-05-17T22:15:46.019Z,3.00
2023-05-17T22:18:14.007Z,2.50
2023-05-17T22:20:41.349Z,1.00
2023-05-17T22:23:08.621Z,1.00
2023-05-17T22:25:36.030Z,2.00
2023-05-17T22:28:03.702Z,3.00
2023-05-17T22:30:31.105Z,3.00
2023-05-17T22:32:58.726Z,1.00
2023-05-17T22:35:26.263Z,1.50
2023-05-17T22:37:53.738Z,1.50
2023-05-17T22:40:21.969Z,1.50
2023-05-17T22:42:51.669Z,2.00
2023-05-17T22:45:19.720Z,0.50
2023-05-17T22:47:47.095Z,1.00
2023-05-17T22:50:15.909Z,1.00
2023-05-17T22:52:43.611Z,1.50
2023-05-17T22:55:11.302Z,2.00
2023-05-17T22:57:39.417Z,1.00
2023-05-17T23:00:09.437Z,2.00
2023-05-17T23:02:37.542Z,2.00
2023-05-17T23:05:05.269Z,1.00
2023-05-17T23:07:37.277Z,0.50
2023-05-17T23:10:07.122Z,1.00
2023-05-17T23:12:37.213Z,0.50
2023-05-17T23:15:06.377Z,1.00
2023-05-17T23:17:34.242Z,1.00
2023-05-17T23:20:11.529Z,1.00
2023-05-17T23:22:40.211Z,0.50
2023-05-17T23:25:08.011Z,1.00
2023-05-17T23:27:36.414Z,1.00
2023-05-17T23:30:04.833Z,1.00
2023-05-17T23:32:32.990Z,0.75
2023-05-17T23:35:04.256Z,1.00
2023-05-17T23:37:36.893Z,1.00
2023-05-17T23:40:05.888Z,0.00
2023-05-17T23:42:33.393Z,1.00
2023-05-17T23:45:00.907Z,0.50
2023-05-17T23:47:28.659Z,0.00
2023-05-17T23:49:56.819Z,0.00
2023-05-17T23:52:25.032Z,1.00
2023-05-17T23:54:52.420Z,1.00
2023-05-17T23:57:20.452Z,0.00
2023-05-17T23:59:47.742Z,0.00
